createdAt,value
2023-04-24T00:00:33.879Z,5.18
2023-04-24T00:03:00.725Z,5.30
2023-04-24T00:05:27.392Z,5.65
2023-04-24T00:07:54.318Z,5.32
2023-04-24T00:10:21.072Z,5.32
2023-04-24T00:12:47.848Z,5.68
2023-04-24T00:15:14.390Z,5.85
2023-04-24T00:17:41.131Z,5.40
2023-04-24T00:20:08.047Z,5.85
2023-04-24T00:22:34.831Z,5.63
2023-04-24T00:25:01.337Z,5.45
2023-04-24T00:27:27.949Z,6.32
2023-04-24T00:29:55.733Z,5.68
2023-04-24T00:32:22.402Z,5.60
2023-04-24T00:34:49.388Z,5.55
2023-04-24T00:37:16.293Z,5.65
2023-04-24T00:39:45.230Z,5.65
2023-04-24T00:42:12.070Z,5.90
2023-04-24T00:44:38.675Z,5.88
2023-04-24T00:47:05.313Z,5.65
2023-04-24T00:49:31.925Z,6.63
2023-04-24T00:52:00.367Z,5.63
2023-04-24T00:54:26.979Z,5.75
2023-04-24T00:56:53.674Z,5.90
2023-04-24T00:59:20.344Z,5.57
2023-04-24T01:01:47.061Z,6.38
2023-04-24T01:04:13.955Z,5.20
2023-04-24T01:06:40.960Z,5.85
2023-04-24T01:09:11.065Z,5.57
2023-04-24T01:11:38.291Z,5.30
2023-04-24T01:14:05.440Z,5.32
2023-04-24T01:16:31.972Z,5.50
2023-04-24T01:18:58.510Z,6.00
2023-04-24T01:21:28.905Z,6.10
2023-04-24T01:23:57.698Z,6.40
2023-04-24T01:26:26.394Z,6.25
2023-04-24T01:28:53.667Z,6.22
2023-04-24T01:31:20.277Z,6.18
2023-04-24T01:33:46.920Z,6.80
2023-04-24T01:36:14.546Z,7.03
2023-04-24T01:38:41.156Z,6.70
2023-04-24T01:41:07.874Z,6.95
2023-04-24T01:43:34.465Z,6.18
2023-04-24T01:46:01.216Z,6.57
2023-04-24T01:48:28.109Z,6.75
2023-04-24T01:50:54.958Z,7.18
2023-04-24T01:53:21.632Z,7.22
2023-04-24T01:55:48.155Z,6.47
2023-04-24T01:58:14.699Z,7.03
2023-04-24T02:00:41.272Z,6.97
2023-04-24T02:03:08.544Z,7.25
2023-04-24T02:05:35.137Z,6.63
2023-04-24T02:08:03.501Z,7.30
2023-04-24T02:10:30.056Z,7.13
2023-04-24T02:13:00.642Z,7.30
2023-04-24T02:15:27.184Z,6.80
2023-04-24T02:17:53.743Z,7.25
2023-04-24T02:20:20.325Z,7.38
2023-04-24T02:22:46.849Z,7.35
2023-04-24T02:25:13.408Z,7.10
2023-04-24T02:27:39.924Z,7.30
2023-04-24T02:30:07.260Z,7.63
2023-04-24T02:32:35.013Z,7.45
2023-04-24T02:35:02.296Z,7.00
2023-04-24T02:37:28.834Z,7.30
2023-04-24T02:39:55.582Z,6.72
2023-04-24T02:42:22.097Z,6.68
2023-04-24T02:44:48.672Z,7.10
2023-04-24T02:47:15.346Z,7.97
2023-04-24T02:49:43.205Z,7.50
2023-04-24T02:52:11.653Z,7.82
2023-04-24T02:54:38.192Z,8.02
2023-04-24T02:57:04.820Z,8.05
2023-04-24T02:59:31.442Z,8.50
2023-04-24T03:01:57.972Z,7.97
2023-04-24T03:04:24.626Z,8.23
2023-04-24T03:06:53.694Z,8.20
2023-04-24T03:09:20.713Z,7.57
2023-04-24T03:11:47.981Z,8.10
2023-04-24T03:14:14.546Z,7.20
2023-04-24T03:16:41.336Z,7.38
2023-04-24T03:19:08.045Z,7.55
2023-04-24T03:21:41.777Z,7.97
2023-04-24T03:24:09.794Z,8.30
2023-04-24T03:26:37.241Z,7.70
2023-04-24T03:29:21.856Z,8.05
2023-04-24T03:31:48.810Z,7.95
2023-04-24T03:34:15.458Z,8.98
2023-04-24T03:36:42.275Z,8.00
2023-04-24T03:39:09.174Z,11.80
2023-04-24T03:41:37.466Z,7.88
2023-04-24T03:44:13.324Z,8.10
2023-04-24T03:46:41.103Z,7.18
2023-04-24T03:49:07.705Z,6.85
2023-04-24T03:51:37.915Z,7.40
2023-04-24T03:54:14.685Z,7.38
2023-04-24T03:56:41.497Z,6.90
2023-04-24T03:59:11.385Z,6.72
2023-04-24T04:01:42.843Z,7.22
2023-04-24T04:04:14.455Z,7.90
2023-04-24T04:06:41.960Z,7.63
2023-04-24T04:09:09.656Z,7.90
2023-04-24T04:11:36.556Z,7.22
2023-04-24T04:14:03.359Z,7.22
2023-04-24T04:16:30.847Z,7.30
2023-04-24T04:19:03.887Z,6.25
2023-04-24T04:21:31.847Z,6.45
2023-04-24T04:24:10.664Z,6.30
2023-04-24T04:26:41.589Z,6.80
2023-04-24T04:29:11.215Z,6.57
2023-04-24T04:31:41.974Z,6.32
2023-04-24T04:34:12.764Z,6.67
2023-04-24T04:36:41.018Z,6.50
2023-04-24T04:39:30.933Z,7.47
2023-04-24T04:42:01.491Z,7.05
2023-04-24T04:44:37.103Z,5.97
2023-04-24T04:47:06.428Z,6.60
2023-04-24T04:49:35.714Z,5.90
2023-04-24T04:52:02.531Z,5.93
2023-04-24T04:54:29.366Z,6.03
2023-04-24T04:56:58.218Z,5.32
2023-04-24T04:59:25.169Z,4.93
2023-04-24T05:01:57.652Z,5.53
2023-04-24T05:04:24.490Z,5.95
2023-04-24T05:06:52.234Z,5.25
2023-04-24T05:09:19.370Z,5.50
2023-04-24T05:11:53.015Z,5.93
2023-04-24T05:14:20.084Z,5.55
2023-04-24T05:16:46.743Z,5.00
2023-04-24T05:19:15.676Z,5.03
2023-04-24T05:21:42.551Z,4.90
2023-04-24T05:24:10.470Z,4.85
2023-04-24T05:26:46.860Z,4.53
2023-04-24T05:29:15.636Z,4.40
2023-04-24T05:31:43.016Z,3.78
2023-04-24T05:34:09.582Z,4.22
2023-04-24T05:36:39.985Z,3.78
2023-04-24T05:39:08.197Z,4.03
2023-04-24T05:41:35.424Z,3.28
2023-04-24T05:44:01.987Z,3.35
2023-04-24T05:46:28.578Z,2.95
2023-04-24T05:48:56.399Z,3.30
2023-04-24T05:51:23.102Z,2.97
2023-04-24T05:53:49.785Z,2.80
2023-04-24T05:56:16.662Z,2.63
2023-04-24T05:58:43.187Z,2.60
2023-04-24T06:01:10.563Z,2.90
2023-04-24T06:03:39.429Z,2.50
2023-04-24T06:06:07.362Z,2.55
2023-04-24T06:08:34.833Z,1.90
2023-04-24T06:11:03.920Z,2.35
2023-04-24T06:13:31.357Z,2.05
2023-04-24T06:16:17.893Z,2.28
2023-04-24T06:18:51.498Z,1.85
2023-04-24T06:21:19.428Z,2.10
2023-04-24T06:23:47.400Z,1.75
2023-04-24T06:26:15.621Z,1.80
2023-04-24T06:28:42.146Z,1.42
2023-04-24T06:31:08.659Z,1.40
2023-04-24T06:33:35.399Z,1.30
2023-04-24T06:36:01.989Z,1.30
2023-04-24T06:38:30.652Z,1.15
2023-04-24T06:40:57.190Z,1.30
2023-04-24T06:43:23.721Z,1.17
2023-04-24T06:45:50.976Z,1.30
2023-04-24T06:48:17.818Z,1.15
2023-04-24T06:50:44.540Z,0.80
2023-04-24T06:53:13.612Z,0.93
2023-04-24T06:55:40.248Z,0.93
2023-04-24T06:58:07.277Z,1.00
2023-04-24T07:00:33.797Z,0.77
2023-04-24T07:03:00.746Z,0.80
2023-04-24T07:05:27.395Z,1.05
2023-04-24T07:07:54.203Z,0.85
2023-04-24T07:10:21.189Z,0.80
2023-04-24T07:12:48.421Z,0.73
2023-04-24T07:15:15.071Z,0.80
2023-04-24T07:17:44.565Z,0.63
2023-04-24T07:20:12.506Z,0.63
2023-04-24T07:22:39.818Z,0.65
2023-04-24T07:25:06.682Z,0.70
2023-04-24T07:27:33.875Z,0.60
2023-04-24T07:30:00.464Z,0.50
2023-04-24T07:32:30.043Z,0.63
2023-04-24T07:34:56.615Z,0.63
2023-04-24T07:37:23.958Z,0.60
2023-04-24T07:39:50.574Z,0.70
2023-04-24T07:42:17.069Z,0.52
2023-04-24T07:44:43.609Z,0.50
2023-04-24T07:47:10.194Z,0.57
2023-04-24T07:49:36.722Z,1.00
2023-04-24T07:52:03.664Z,0.60
2023-04-24T07:54:30.809Z,0.50
2023-04-24T07:56:57.323Z,0.70
2023-04-24T07:59:23.846Z,0.50
2023-04-24T08:01:50.405Z,0.85
2023-04-24T08:04:17.061Z,0.90
2023-04-24T08:06:43.689Z,0.55
2023-04-24T08:09:10.789Z,0.85
2023-04-24T08:11:37.322Z,0.40
2023-04-24T08:14:03.887Z,0.50
2023-04-24T08:16:30.487Z,0.45
2023-04-24T08:18:57.024Z,0.45
2023-04-24T08:21:24.234Z,0.60
2023-04-24T08:23:51.122Z,0.88
2023-04-24T08:26:17.717Z,2.58
2023-04-24T08:28:44.336Z,0.70
2023-04-24T08:31:11.154Z,0.50
2023-04-24T08:33:37.726Z,0.50
2023-04-24T08:36:05.766Z,0.43
2023-04-24T08:38:32.399Z,0.40
2023-04-24T08:41:00.544Z,0.55
2023-04-24T08:43:28.309Z,0.55
2023-04-24T08:45:57.474Z,0.68
2023-04-24T08:48:30.832Z,0.60
2023-04-24T08:50:59.611Z,0.60
2023-04-24T08:53:27.315Z,0.63
2023-04-24T08:55:56.459Z,0.50
2023-04-24T08:58:24.075Z,0.60
2023-04-24T09:00:50.798Z,0.60
2023-04-24T09:03:18.143Z,0.70
2023-04-24T09:05:47.482Z,0.80
2023-04-24T09:08:15.055Z,0.88
2023-04-24T09:10:42.172Z,0.70
2023-04-24T09:13:12.223Z,0.50
2023-04-24T09:15:39.745Z,0.80
2023-04-24T09:18:06.551Z,0.88
2023-04-24T09:20:33.586Z,1.00
2023-04-24T09:23:00.288Z,0.70
2023-04-24T09:25:34.592Z,0.80
2023-04-24T09:28:02.951Z,0.70
2023-04-24T09:30:29.594Z,0.70
2023-04-24T09:33:13.325Z,0.55
2023-04-24T09:35:44.546Z,0.80
2023-04-24T09:38:11.782Z,0.55
2023-04-24T09:40:41.021Z,0.60
2023-04-24T09:43:11.620Z,0.68
2023-04-24T09:45:39.569Z,0.80
2023-04-24T09:48:08.823Z,0.63
2023-04-24T09:50:35.604Z,0.60
2023-04-24T09:53:09.812Z,0.60
2023-04-24T09:55:40.608Z,0.80
2023-04-24T09:58:09.183Z,0.82
2023-04-24T10:00:35.757Z,0.65
2023-04-24T10:03:04.638Z,0.80
2023-04-24T10:05:33.612Z,0.65
2023-04-24T10:08:07.744Z,0.77
2023-04-24T10:10:36.379Z,0.75
2023-04-24T10:13:03.063Z,0.57
2023-04-24T10:15:29.670Z,0.70
2023-04-24T10:17:56.546Z,0.70
2023-04-24T10:20:24.955Z,0.60
2023-04-24T10:22:53.661Z,0.52
2023-04-24T10:25:25.350Z,0.93
2023-04-24T10:27:53.092Z,0.60
2023-04-24T10:30:20.896Z,0.80
2023-04-24T10:32:47.461Z,0.63
2023-04-24T10:35:15.142Z,0.98
2023-04-24T10:37:44.314Z,0.98
2023-04-24T10:40:11.716Z,0.60
2023-04-24T10:42:44.633Z,0.80
2023-04-24T10:45:19.455Z,0.93
2023-04-24T10:48:06.024Z,0.57
2023-04-24T10:50:53.251Z,0.90
2023-04-24T10:53:21.577Z,0.70
2023-04-24T10:55:49.961Z,0.80
2023-04-24T10:58:17.945Z,0.88
2023-04-24T11:00:47.707Z,0.60
2023-04-24T11:03:24.629Z,0.68
2023-04-24T11:06:02.035Z,0.60
2023-04-24T11:08:52.492Z,0.60
2023-04-24T11:11:20.381Z,0.50
2023-04-24T11:13:55.900Z,1.10
2023-04-24T11:16:27.517Z,0.70
2023-04-24T11:19:01.996Z,0.52
2023-04-24T11:21:42.912Z,0.95
2023-04-24T11:24:32.069Z,0.93
2023-04-24T11:27:15.032Z,0.93
2023-04-24T11:30:01.045Z,0.70
2023-04-24T11:32:28.873Z,0.80
2023-04-24T11:35:09.944Z,0.98
2023-04-24T11:40:05.783Z,1.23
2023-04-24T11:42:41.564Z,0.82
2023-04-24T11:45:10.669Z,0.60
2023-04-24T11:47:37.342Z,0.90
2023-04-24T11:50:05.950Z,0.90
2023-04-24T11:52:33.542Z,0.70
2023-04-24T11:55:00.742Z,0.77
2023-04-24T11:57:30.013Z,0.90
2023-04-24T11:59:56.932Z,0.70
2023-04-24T12:02:25.273Z,0.85
2023-04-24T12:04:55.765Z,0.90
2023-04-24T12:07:24.198Z,1.10
2023-04-24T12:10:00.963Z,0.50
2023-04-24T12:12:28.557Z,0.60
2023-04-24T12:14:58.313Z,0.77
2023-04-24T12:17:29.036Z,1.20
2023-04-24T12:20:06.491Z,0.50
2023-04-24T12:22:54.790Z,0.47
2023-04-24T12:25:23.160Z,0.50
2023-04-24T12:28:13.255Z,0.63
2023-04-24T12:30:49.245Z,0.43
2023-04-24T12:33:20.891Z,0.60
2023-04-24T12:35:52.307Z,0.40
2023-04-24T12:38:23.852Z,0.60
2023-04-24T12:41:03.130Z,0.50
2023-04-24T12:43:29.790Z,0.55
2023-04-24T12:45:56.316Z,0.50
2023-04-24T12:48:23.423Z,0.57
2023-04-24T12:50:50.030Z,0.70
2023-04-24T12:53:17.106Z,0.70
2023-04-24T12:55:43.679Z,0.50
2023-04-24T12:58:10.286Z,0.40
2023-04-24T13:00:37.346Z,0.52
2023-04-24T13:03:04.540Z,0.60
2023-04-24T13:05:31.772Z,0.40
2023-04-24T13:07:58.598Z,0.60
2023-04-24T13:10:25.149Z,1.27
2023-04-24T13:12:51.653Z,0.60
2023-04-24T13:15:18.248Z,0.50
2023-04-24T13:17:44.866Z,0.50
2023-04-24T13:20:11.471Z,0.50
2023-04-24T13:22:38.704Z,0.60
2023-04-24T13:25:07.051Z,0.50
2023-04-24T13:27:33.707Z,0.50
2023-04-24T13:30:00.329Z,0.65
2023-04-24T13:32:27.779Z,0.40
2023-04-24T13:34:54.320Z,0.80
2023-04-24T13:37:20.833Z,0.45
2023-04-24T13:39:47.435Z,0.45
2023-04-24T13:42:13.966Z,0.50
2023-04-24T13:44:41.388Z,0.52
2023-04-24T13:47:08.016Z,0.85
2023-04-24T13:49:34.573Z,0.50
2023-04-24T13:52:01.466Z,0.63
2023-04-24T13:54:28.024Z,0.40
2023-04-24T13:56:57.394Z,0.70
2023-04-24T13:59:24.067Z,0.63
2023-04-24T14:01:51.003Z,0.60
2023-04-24T14:04:17.870Z,0.50
2023-04-24T14:06:44.849Z,0.60
2023-04-24T14:09:11.478Z,0.55
2023-04-24T14:11:38.008Z,0.57
2023-04-24T14:14:04.760Z,0.60
2023-04-24T14:16:31.809Z,0.50
2023-04-24T14:18:58.631Z,0.80
2023-04-24T14:21:25.358Z,0.60
2023-04-24T14:23:51.900Z,0.68
2023-04-24T14:26:18.449Z,0.60
2023-04-24T14:28:45.004Z,0.70
2023-04-24T14:31:11.572Z,0.80
2023-04-24T14:33:38.101Z,0.82
2023-04-24T14:36:06.561Z,0.85
2023-04-24T14:38:33.149Z,0.80
2023-04-24T14:41:07.264Z,0.63
2023-04-24T14:43:36.180Z,0.70
2023-04-24T14:46:03.749Z,0.80
2023-04-24T14:48:30.316Z,0.70
2023-04-24T14:50:56.881Z,0.82
2023-04-24T14:53:23.501Z,0.93
2023-04-24T14:55:50.117Z,0.80
2023-04-24T14:58:16.678Z,0.60
2023-04-24T15:00:43.462Z,0.70
2023-04-24T15:03:10.225Z,0.82
2023-04-24T15:05:37.677Z,0.85
2023-04-24T15:08:04.922Z,0.63
2023-04-24T15:10:31.506Z,0.80
2023-04-24T15:12:58.095Z,0.80
2023-04-24T15:15:24.680Z,0.80
2023-04-24T15:17:51.289Z,0.95
2023-04-24T15:20:18.893Z,1.10
2023-04-24T15:22:45.492Z,1.00
2023-04-24T15:25:12.175Z,0.95
2023-04-24T15:27:46.032Z,0.90
2023-04-24T15:30:13.386Z,0.85
2023-04-24T15:32:40.491Z,1.00
2023-04-24T15:35:09.619Z,0.90
2023-04-24T15:37:39.544Z,1.20
2023-04-24T15:40:08.564Z,0.80
2023-04-24T15:42:36.214Z,0.90
2023-04-24T15:45:03.439Z,1.02
2023-04-24T15:47:30.023Z,0.98
2023-04-24T15:49:56.597Z,1.05
2023-04-24T15:52:23.211Z,1.45
2023-04-24T15:54:50.025Z,1.00
2023-04-24T15:57:16.610Z,1.17
2023-04-24T15:59:43.291Z,1.20
2023-04-24T16:02:11.947Z,0.93
2023-04-24T16:04:38.753Z,1.15
2023-04-24T16:07:05.673Z,0.88
2023-04-24T16:09:32.179Z,0.80
2023-04-24T16:11:58.711Z,0.80
2023-04-24T16:14:25.831Z,0.98
2023-04-24T16:16:52.487Z,0.70
2023-04-24T16:19:19.027Z,1.27
2023-04-24T16:21:45.659Z,1.05
2023-04-24T16:24:12.186Z,0.90
2023-04-24T16:26:39.551Z,0.80
2023-04-24T16:29:06.062Z,0.70
2023-04-24T16:31:33.150Z,1.02
2023-04-24T16:33:59.695Z,0.88
2023-04-24T16:36:26.987Z,0.80
2023-04-24T16:38:53.502Z,1.10
2023-04-24T16:41:20.096Z,0.70
2023-04-24T16:43:46.612Z,0.80
2023-04-24T16:46:13.282Z,0.70
2023-04-24T16:48:39.810Z,0.80
2023-04-24T16:51:06.359Z,0.70
2023-04-24T16:53:32.810Z,0.70
2023-04-24T16:55:59.418Z,0.80
2023-04-24T16:58:26.080Z,1.00
2023-04-24T17:00:52.699Z,1.00
2023-04-24T17:03:19.337Z,1.13
2023-04-24T17:05:46.040Z,1.00
2023-04-24T17:08:12.540Z,1.13
2023-04-24T17:10:39.069Z,1.00
2023-04-24T17:13:05.586Z,1.05
2023-04-24T17:15:32.093Z,0.80
2023-04-24T17:17:58.771Z,1.20
2023-04-24T17:20:26.900Z,0.80
2023-04-24T17:22:54.788Z,1.00
2023-04-24T17:25:21.608Z,0.90
2023-04-24T17:27:48.292Z,0.88
2023-04-24T17:30:15.784Z,1.23
2023-04-24T17:32:42.433Z,0.88
2023-04-24T17:35:09.503Z,1.00
2023-04-24T17:37:36.293Z,0.93
2023-04-24T17:40:03.571Z,1.23
2023-04-24T17:42:30.814Z,1.15
2023-04-24T17:44:57.403Z,1.08
2023-04-24T17:47:26.216Z,0.90
2023-04-24T17:49:53.089Z,0.88
2023-04-24T17:52:19.840Z,1.10
2023-04-24T17:54:46.403Z,0.93
2023-04-24T17:57:13.004Z,1.02
2023-04-24T17:59:39.527Z,1.02
2023-04-24T18:02:06.524Z,1.55
2023-04-24T18:04:33.204Z,0.90
2023-04-24T18:06:59.888Z,1.00
2023-04-24T18:09:26.448Z,0.80
2023-04-24T18:11:53.004Z,0.70
2023-04-24T18:14:19.623Z,0.80
2023-04-24T18:16:46.166Z,0.68
2023-04-24T18:19:12.786Z,0.60
2023-04-24T18:21:39.438Z,0.70
2023-04-24T18:24:06.159Z,0.57
2023-04-24T18:26:32.873Z,0.60
2023-04-24T18:28:59.443Z,0.70
2023-04-24T18:31:26.043Z,0.68
2023-04-24T18:33:54.183Z,0.60
2023-04-24T18:36:20.780Z,0.77
2023-04-24T18:38:47.596Z,0.50
2023-04-24T18:41:14.390Z,0.60
2023-04-24T18:43:40.988Z,1.90
2023-04-24T18:46:07.523Z,1.00
2023-04-24T18:48:34.048Z,1.77
2023-04-24T18:51:00.609Z,0.57
2023-04-24T18:53:27.148Z,0.70
2023-04-24T18:55:56.773Z,0.50
2023-04-24T18:58:23.306Z,1.50
2023-04-24T19:00:49.901Z,0.60
2023-04-24T19:03:16.909Z,0.70
2023-04-24T19:05:43.606Z,0.77
2023-04-24T19:08:10.163Z,0.70
2023-04-24T19:10:36.784Z,0.65
2023-04-24T19:13:03.618Z,0.70
2023-04-24T19:15:30.253Z,0.80
2023-04-24T19:17:56.952Z,0.90
2023-04-24T19:20:23.597Z,0.63
2023-04-24T19:22:50.810Z,1.10
2023-04-24T19:25:17.396Z,0.88
2023-04-24T19:27:44.007Z,0.80
2023-04-24T19:30:10.906Z,1.00
2023-04-24T19:32:37.463Z,1.23
2023-04-24T19:35:04.252Z,1.13
2023-04-24T19:37:32.260Z,2.67
2023-04-24T19:39:58.811Z,1.45
2023-04-24T19:42:39.803Z,1.48
2023-04-24T19:45:11.548Z,2.08
2023-04-24T19:47:38.293Z,1.67
2023-04-24T19:50:05.607Z,1.85
2023-04-24T19:52:32.099Z,1.98
2023-04-24T19:54:59.633Z,1.60
2023-04-24T19:57:26.134Z,2.42
2023-04-24T19:59:54.804Z,2.40
2023-04-24T20:02:21.408Z,2.20
2023-04-24T20:04:48.436Z,2.40
2023-04-24T20:07:15.688Z,2.28
2023-04-24T20:09:42.241Z,1.80
2023-04-24T20:12:09.663Z,2.05
2023-04-24T20:14:36.264Z,1.95
2023-04-24T20:17:02.744Z,2.10
2023-04-24T20:19:29.345Z,1.88
2023-04-24T20:21:55.932Z,1.73
2023-04-24T20:24:22.504Z,1.70
2023-04-24T20:26:49.008Z,1.77
2023-04-24T20:29:15.802Z,1.95
2023-04-24T20:31:42.368Z,2.03
2023-04-24T20:34:09.001Z,2.17
2023-04-24T20:36:35.494Z,1.92
2023-04-24T20:39:02.207Z,2.22
2023-04-24T20:41:30.283Z,3.00
2023-04-24T20:43:56.834Z,2.20
2023-04-24T20:46:23.553Z,2.15
2023-04-24T20:48:50.903Z,1.75
2023-04-24T20:51:19.549Z,2.28
2023-04-24T20:53:46.128Z,2.65
2023-04-24T20:56:12.703Z,2.10
2023-04-24T20:58:39.777Z,2.35
2023-04-24T21:01:06.584Z,2.35
2023-04-24T21:03:33.275Z,2.47
2023-04-24T21:06:00.001Z,2.60
2023-04-24T21:08:26.708Z,2.60
2023-04-24T21:10:53.245Z,3.13
2023-04-24T21:13:19.749Z,2.80
2023-04-24T21:15:46.386Z,2.70
2023-04-24T21:18:12.950Z,2.80
2023-04-24T21:20:39.520Z,2.75
2023-04-24T21:23:06.048Z,2.88
2023-04-24T21:25:32.897Z,2.90
2023-04-24T21:27:59.877Z,3.10
2023-04-24T21:30:26.476Z,3.10
2023-04-24T21:32:53.755Z,3.35
2023-04-24T21:35:20.459Z,3.20
2023-04-24T21:37:47.220Z,3.15
2023-04-24T21:40:15.748Z,3.72
2023-04-24T21:42:42.570Z,3.72
2023-04-24T21:45:09.974Z,3.90
2023-04-24T21:47:36.604Z,3.63
2023-04-24T21:50:04.477Z,3.40
2023-04-24T21:52:31.177Z,3.40
2023-04-24T21:54:57.708Z,3.50
2023-04-24T21:57:24.400Z,2.80
2023-04-24T21:59:51.469Z,3.13
2023-04-24T22:02:18.113Z,3.17
2023-04-24T22:04:45.161Z,3.72
2023-04-24T22:07:12.180Z,3.55
2023-04-24T22:09:38.718Z,4.25
2023-04-24T22:12:05.515Z,3.10
2023-04-24T22:14:32.182Z,3.70
2023-04-24T22:16:58.726Z,4.30
2023-04-24T22:19:28.314Z,4.03
2023-04-24T22:21:54.952Z,3.55
2023-04-24T22:24:21.453Z,3.75
2023-04-24T22:26:48.005Z,4.22
2023-04-24T22:29:14.607Z,3.72
2023-04-24T22:31:41.703Z,4.20
2023-04-24T22:34:08.767Z,4.00
2023-04-24T22:36:35.347Z,3.78
2023-04-24T22:39:01.866Z,4.20
2023-04-24T22:41:28.369Z,4.22
2023-04-24T22:43:55.867Z,4.00
2023-04-24T22:46:22.672Z,4.18
2023-04-24T22:48:49.311Z,3.25
2023-04-24T22:51:18.102Z,3.72
2023-04-24T22:53:44.933Z,3.67
2023-04-24T22:56:11.831Z,3.53
2023-04-24T22:58:38.597Z,2.85
2023-04-24T23:01:05.207Z,3.20
2023-04-24T23:03:31.880Z,3.67
2023-04-24T23:05:58.509Z,3.13
2023-04-24T23:08:25.048Z,3.20
2023-04-24T23:10:51.584Z,2.97
2023-04-24T23:13:18.170Z,3.88
2023-04-24T23:15:44.807Z,3.38
2023-04-24T23:18:11.643Z,3.45
2023-04-24T23:20:38.957Z,3.25
2023-04-24T23:23:05.607Z,3.17
2023-04-24T23:25:35.016Z,3.05
2023-04-24T23:28:01.527Z,3.05
2023-04-24T23:30:28.102Z,2.78
2023-04-24T23:32:54.687Z,2.42
2023-04-24T23:35:21.272Z,2.90
2023-04-24T23:37:48.230Z,2.83
2023-04-24T23:40:14.766Z,2.58
2023-04-24T23:42:41.305Z,2.70
2023-04-24T23:45:08.470Z,2.50
2023-04-24T23:47:34.977Z,2.60
2023-04-24T23:50:01.515Z,2.25
2023-04-24T23:52:28.139Z,2.55
2023-04-24T23:54:54.678Z,2.53
2023-04-24T23:57:21.756Z,2.30
2023-04-24T23:59:48.392Z,2.35
